sensor_id;sensor_type;location;lat;lon;timestamp;temperature;humidity
74901;DHT22;63461;51.416;6.758;2023-07-20T00:00:29;18.80;99.90
74901;DHT22;63461;51.416;6.758;2023-07-20T00:03:13;18.70;99.90
74901;DHT22;63461;51.416;6.758;2023-07-20T00:05:43;18.70;99.90
74901;DHT22;63461;51.416;6.758;2023-07-20T00:08:09;18.70;99.90
74901;DHT22;63461;51.416;6.758;2023-07-20T00:10:35;18.70;99.90
74901;DHT22;63461;51.416;6.758;2023-07-20T00:13:01;18.70;99.90
74901;DHT22;63461;51.416;6.758;2023-07-20T00:15:26;18.70;99.90
74901;DHT22;63461;51.416;6.758;2023-07-20T00:17:52;18.70;99.90
74901;DHT22;63461;51.416;6.758;2023-07-20T00:20:18;18.70;99.90
74901;DHT22;63461;51.416;6.758;2023-07-20T00:22:44;18.70;99.90
74901;DHT22;63461;51.416;6.758;2023-07-20T00:25:09;18.60;99.90
74901;DHT22;63461;51.416;6.758;2023-07-20T00:27:37;18.60;99.90
74901;DHT22;63461;51.416;6.758;2023-07-20T00:30:04;18.60;99.90
74901;DHT22;63461;51.416;6.758;2023-07-20T00:32:31;18.70;99.90
74901;DHT22;63461;51.416;6.758;2023-07-20T00:34:57;18.70;99.90
74901;DHT22;63461;51.416;6.758;2023-07-20T00:37:22;18.70;99.90
74901;DHT22;63461;51.416;6.758;2023-07-20T00:39:48;18.60;99.90
74901;DHT22;63461;51.416;6.758;2023-07-20T00:42:14;18.60;99.90
74901;DHT22;63461;51.416;6.758;2023-07-20T00:44:39;18.60;99.90
74901;DHT22;63461;51.416;6.758;2023-07-20T00:47:06;18.60;99.90
74901;DHT22;63461;51.416;6.758;2023-07-20T00:49:32;18.50;99.90
74901;DHT22;63461;51.416;6.758;2023-07-20T00:52:00;18.40;99.90
74901;DHT22;63461;51.416;6.758;2023-07-20T00:54:27;18.40;99.90
74901;DHT22;63461;51.416;6.758;2023-07-20T00:56:53;18.30;99.90
74901;DHT22;63461;51.416;6.758;2023-07-20T00:59:20;18.40;99.90
74901;DHT22;63461;51.416;6.758;2023-07-20T01:01:46;18.40;99.90
74901;DHT22;63461;51.416;6.758;2023-07-20T01:04:13;18.40;99.90
74901;DHT22;63461;51.416;6.758;2023-07-20T01:12:05;18.60;99.90
74901;DHT22;63461;51.416;6.758;2023-07-20T01:14:34;18.50;99.90
74901;DHT22;63461;51.416;6.758;2023-07-20T01:17:00;18.60;99.90
74901;DHT22;63461;51.416;6.758;2023-07-20T01:19:26;18.40;99.90
74901;DHT22;63461;51.416;6.758;2023-07-20T01:22:03;18.40;99.90
74901;DHT22;63461;51.416;6.758;2023-07-20T01:25:08;18.40;99.90
74901;DHT22;63461;51.416;6.758;2023-07-20T01:30:39;18.50;99.90
74901;DHT22;63461;51.416;6.758;2023-07-20T01:33:09;18.40;99.90
74901;DHT22;63461;51.416;6.758;2023-07-20T01:35:36;18.40;99.90
74901;DHT22;63461;51.416;6.758;2023-07-20T01:38:03;18.30;99.90
74901;DHT22;63461;51.416;6.758;2023-07-20T01:40:30;18.30;99.90
74901;DHT22;63461;51.416;6.758;2023-07-20T01:42:56;18.40;99.90
74901;DHT22;63461;51.416;6.758;2023-07-20T01:45:22;18.40;99.90
74901;DHT22;63461;51.416;6.758;2023-07-20T01:47:48;18.20;99.90
74901;DHT22;63461;51.416;6.758;2023-07-20T01:50:13;18.20;99.90
74901;DHT22;63461;51.416;6.758;2023-07-20T01:52:39;18.10;99.90
74901;DHT22;63461;51.416;6.758;2023-07-20T01:55:05;18.10;99.90
74901;DHT22;63461;51.416;6.758;2023-07-20T01:57:31;18.10;99.90
74901;DHT22;63461;51.416;6.758;2023-07-20T01:59:57;18.20;99.90
74901;DHT22;63461;51.416;6.758;2023-07-20T02:02:26;18.20;99.90
74901;DHT22;63461;51.416;6.758;2023-07-20T02:04:52;18.20;99.90
74901;DHT22;63461;51.416;6.758;2023-07-20T02:07:20;18.20;99.90
74901;DHT22;63461;51.416;6.758;2023-07-20T02:09:45;18.20;99.90
74901;DHT22;63461;51.416;6.758;2023-07-20T02:12:11;18.20;99.90
74901;DHT22;63461;51.416;6.758;2023-07-20T02:14:37;18.10;99.90
74901;DHT22;63461;51.416;6.758;2023-07-20T02:17:03;18.20;99.90
74901;DHT22;63461;51.416;6.758;2023-07-20T02:19:30;18.20;99.90
74901;DHT22;63461;51.416;6.758;2023-07-20T02:21:55;18.20;99.90
74901;DHT22;63461;51.416;6.758;2023-07-20T02:24:21;18.10;99.90
74901;DHT22;63461;51.416;6.758;2023-07-20T02:26:47;18.10;99.90
74901;DHT22;63461;51.416;6.758;2023-07-20T02:29:13;18.20;99.90
74901;DHT22;63461;51.416;6.758;2023-07-20T02:31:39;18.10;99.90
74901;DHT22;63461;51.416;6.758;2023-07-20T02:34:05;17.90;99.90
74901;DHT22;63461;51.416;6.758;2023-07-20T02:36:32;18.00;99.90
74901;DHT22;63461;51.416;6.758;2023-07-20T02:38:58;18.00;99.90
74901;DHT22;63461;51.416;6.758;2023-07-20T02:41:24;18.00;99.90
74901;DHT22;63461;51.416;6.758;2023-07-20T02:43:50;18.10;99.90
74901;DHT22;63461;51.416;6.758;2023-07-20T02:46:16;18.00;99.90
74901;DHT22;63461;51.416;6.758;2023-07-20T02:48:42;18.00;99.90
74901;DHT22;63461;51.416;6.758;2023-07-20T02:51:07;17.90;99.90
74901;DHT22;63461;51.416;6.758;2023-07-20T02:53:33;17.80;99.90
74901;DHT22;63461;51.416;6.758;2023-07-20T02:55:59;17.80;99.90
74901;DHT22;63461;51.416;6.758;2023-07-20T02:58:25;17.80;99.90
74901;DHT22;63461;51.416;6.758;2023-07-20T03:00:50;17.80;99.90
74901;DHT22;63461;51.416;6.758;2023-07-20T03:03:16;17.80;99.90
74901;DHT22;63461;51.416;6.758;2023-07-20T03:05:42;17.80;99.90
74901;DHT22;63461;51.416;6.758;2023-07-20T03:08:08;17.80;99.90
74901;DHT22;63461;51.416;6.758;2023-07-20T03:10:39;17.70;99.90
74901;DHT22;63461;51.416;6.758;2023-07-20T03:13:06;17.70;99.90
74901;DHT22;63461;51.416;6.758;2023-07-20T03:15:33;17.70;99.90
74901;DHT22;63461;51.416;6.758;2023-07-20T03:18:00;17.60;99.90
74901;DHT22;63461;51.416;6.758;2023-07-20T03:20:27;17.60;99.90
74901;DHT22;63461;51.416;6.758;2023-07-20T03:22:53;17.60;99.90
74901;DHT22;63461;51.416;6.758;2023-07-20T03:25:19;17.60;99.90
74901;DHT22;63461;51.416;6.758;2023-07-20T03:27:45;17.60;99.90
74901;DHT22;63461;51.416;6.758;2023-07-20T03:30:11;17.60;99.90
74901;DHT22;63461;51.416;6.758;2023-07-20T03:32:37;17.50;99.90
74901;DHT22;63461;51.416;6.758;2023-07-20T03:35:03;17.60;99.90
74901;DHT22;63461;51.416;6.758;2023-07-20T03:37:30;17.70;99.90
74901;DHT22;63461;51.416;6.758;2023-07-20T03:39:55;17.60;99.90
74901;DHT22;63461;51.416;6.758;2023-07-20T03:42:23;17.60;99.90
74901;DHT22;63461;51.416;6.758;2023-07-20T03:44:48;17.60;99.90
74901;DHT22;63461;51.416;6.758;2023-07-20T03:47:14;17.60;99.90
74901;DHT22;63461;51.416;6.758;2023-07-20T03:49:40;17.60;99.90
74901;DHT22;63461;51.416;6.758;2023-07-20T03:52:06;17.70;99.90
74901;DHT22;63461;51.416;6.758;2023-07-20T03:54:32;17.70;99.90
74901;DHT22;63461;51.416;6.758;2023-07-20T03:56:57;17.70;99.90
74901;DHT22;63461;51.416;6.758;2023-07-20T03:59:23;17.70;99.90
74901;DHT22;63461;51.416;6.758;2023-07-20T04:01:49;17.70;99.90
74901;DHT22;63461;51.416;6.758;2023-07-20T04:04:16;17.60;99.90
74901;DHT22;63461;51.416;6.758;2023-07-20T04:06:41;17.60;99.90
74901;DHT22;63461;51.416;6.758;2023-07-20T04:09:11;17.60;99.90
74901;DHT22;63461;51.416;6.758;2023-07-20T04:11:36;17.60;99.90
74901;DHT22;63461;51.416;6.758;2023-07-20T04:14:02;17.60;99.90
74901;DHT22;63461;51.416;6.758;2023-07-20T04:16:28;17.70;99.90
74901;DHT22;63461;51.416;6.758;2023-07-20T04:18:57;17.60;99.90
74901;DHT22;63461;51.416;6.758;2023-07-20T04:21:25;17.70;99.90
74901;DHT22;63461;51.416;6.758;2023-07-20T04:23:51;17.60;99.90
74901;DHT22;63461;51.416;6.758;2023-07-20T04:26:17;17.60;99.90
74901;DHT22;63461;51.416;6.758;2023-07-20T04:28:43;17.60;99.90
74901;DHT22;63461;51.416;6.758;2023-07-20T04:31:14;17.40;99.90
74901;DHT22;63461;51.416;6.758;2023-07-20T04:33:42;17.40;99.90
74901;DHT22;63461;51.416;6.758;2023-07-20T04:36:08;17.50;99.90
74901;DHT22;63461;51.416;6.758;2023-07-20T04:38:35;17.50;99.90
74901;DHT22;63461;51.416;6.758;2023-07-20T04:41:08;17.60;99.90
74901;DHT22;63461;51.416;6.758;2023-07-20T04:43:42;17.60;99.90
74901;DHT22;63461;51.416;6.758;2023-07-20T04:46:10;17.60;99.90
74901;DHT22;63461;51.416;6.758;2023-07-20T04:48:36;17.60;99.90
74901;DHT22;63461;51.416;6.758;2023-07-20T04:51:02;17.70;99.90
74901;DHT22;63461;51.416;6.758;2023-07-20T04:53:28;17.70;99.90
74901;DHT22;63461;51.416;6.758;2023-07-20T04:55:55;17.70;99.90
74901;DHT22;63461;51.416;6.758;2023-07-20T04:58:23;17.70;99.90
74901;DHT22;63461;51.416;6.758;2023-07-20T05:00:51;17.70;99.90
74901;DHT22;63461;51.416;6.758;2023-07-20T05:03:17;17.70;99.90
74901;DHT22;63461;51.416;6.758;2023-07-20T05:05:43;17.60;99.90
74901;DHT22;63461;51.416;6.758;2023-07-20T05:08:10;17.70;99.90
74901;DHT22;63461;51.416;6.758;2023-07-20T05:10:36;17.70;99.90
74901;DHT22;63461;51.416;6.758;2023-07-20T05:13:01;17.80;99.90
74901;DHT22;63461;51.416;6.758;2023-07-20T05:15:28;17.70;99.90
74901;DHT22;63461;51.416;6.758;2023-07-20T05:17:54;17.80;99.90
74901;DHT22;63461;51.416;6.758;2023-07-20T05:20:21;17.70;99.90
74901;DHT22;63461;51.416;6.758;2023-07-20T05:22:48;17.80;99.90
74901;DHT22;63461;51.416;6.758;2023-07-20T05:25:14;17.80;99.90
74901;DHT22;63461;51.416;6.758;2023-07-20T05:27:42;17.70;99.90
74901;DHT22;63461;51.416;6.758;2023-07-20T05:30:08;17.70;99.90
74901;DHT22;63461;51.416;6.758;2023-07-20T05:32:34;17.70;99.90
74901;DHT22;63461;51.416;6.758;2023-07-20T05:35:00;17.60;99.90
74901;DHT22;63461;51.416;6.758;2023-07-20T05:37:26;17.60;99.90
74901;DHT22;63461;51.416;6.758;2023-07-20T05:39:51;17.70;99.90
74901;DHT22;63461;51.416;6.758;2023-07-20T05:42:17;17.70;99.90
74901;DHT22;63461;51.416;6.758;2023-07-20T05:44:43;17.70;99.90
74901;DHT22;63461;51.416;6.758;2023-07-20T05:47:08;17.90;99.90
74901;DHT22;63461;51.416;6.758;2023-07-20T05:49:35;17.90;99.90
74901;DHT22;63461;51.416;6.758;2023-07-20T05:52:01;18.10;99.90
74901;DHT22;63461;51.416;6.758;2023-07-20T05:54:27;18.10;99.90
74901;DHT22;63461;51.416;6.758;2023-07-20T05:56:54;18.10;99.90
74901;DHT22;63461;51.416;6.758;2023-07-20T05:59:20;18.10;99.90
74901;DHT22;63461;51.416;6.758;2023-07-20T06:01:46;18.10;99.90
74901;DHT22;63461;51.416;6.758;2023-07-20T06:04:14;18.10;99.90
74901;DHT22;63461;51.416;6.758;2023-07-20T06:06:40;18.20;99.90
74901;DHT22;63461;51.416;6.758;2023-07-20T06:09:05;18.10;99.90
74901;DHT22;63461;51.416;6.758;2023-07-20T06:11:35;18.10;99.90
74901;DHT22;63461;51.416;6.758;2023-07-20T06:14:01;18.20;99.90
74901;DHT22;63461;51.416;6.758;2023-07-20T06:16:27;18.00;99.90
74901;DHT22;63461;51.416;6.758;2023-07-20T06:18:53;18.00;99.90
74901;DHT22;63461;51.416;6.758;2023-07-20T06:21:19;17.90;99.90
74901;DHT22;63461;51.416;6.758;2023-07-20T06:23:45;18.00;99.90
74901;DHT22;63461;51.416;6.758;2023-07-20T06:26:11;18.10;99.90
74901;DHT22;63461;51.416;6.758;2023-07-20T06:28:37;18.10;99.90
74901;DHT22;63461;51.416;6.758;2023-07-20T06:31:03;18.10;99.90
74901;DHT22;63461;51.416;6.758;2023-07-20T06:33:29;18.10;99.90
74901;DHT22;63461;51.416;6.758;2023-07-20T06:35:55;18.10;99.90
74901;DHT22;63461;51.416;6.758;2023-07-20T06:38:22;18.10;99.90
74901;DHT22;63461;51.416;6.758;2023-07-20T06:40:49;18.10;99.90
74901;DHT22;63461;51.416;6.758;2023-07-20T06:43:16;18.10;99.90
74901;DHT22;63461;51.416;6.758;2023-07-20T06:45:42;18.30;99.90
74901;DHT22;63461;51.416;6.758;2023-07-20T06:48:08;18.40;99.90
74901;DHT22;63461;51.416;6.758;2023-07-20T06:50:33;18.50;99.90
74901;DHT22;63461;51.416;6.758;2023-07-20T06:52:59;18.50;99.90
74901;DHT22;63461;51.416;6.758;2023-07-20T06:55:28;18.40;99.90
74901;DHT22;63461;51.416;6.758;2023-07-20T06:57:54;18.30;99.90
74901;DHT22;63461;51.416;6.758;2023-07-20T07:00:20;18.40;99.90
74901;DHT22;63461;51.416;6.758;2023-07-20T07:02:46;18.30;99.90
74901;DHT22;63461;51.416;6.758;2023-07-20T07:05:11;18.20;99.90
74901;DHT22;63461;51.416;6.758;2023-07-20T07:07:39;18.20;99.90
74901;DHT22;63461;51.416;6.758;2023-07-20T07:10:05;18.10;99.90
74901;DHT22;63461;51.416;6.758;2023-07-20T07:12:31;18.20;99.90
74901;DHT22;63461;51.416;6.758;2023-07-20T07:14:57;18.20;99.90
74901;DHT22;63461;51.416;6.758;2023-07-20T07:17:23;18.30;99.90
74901;DHT22;63461;51.416;6.758;2023-07-20T07:19:49;18.30;99.90
74901;DHT22;63461;51.416;6.758;2023-07-20T07:22:15;18.30;99.90
74901;DHT22;63461;51.416;6.758;2023-07-20T07:24:41;18.30;99.90
74901;DHT22;63461;51.416;6.758;2023-07-20T07:27:08;18.30;99.90
74901;DHT22;63461;51.416;6.758;2023-07-20T07:29:34;18.20;99.90
74901;DHT22;63461;51.416;6.758;2023-07-20T07:32:00;18.30;99.90
74901;DHT22;63461;51.416;6.758;2023-07-20T07:34:27;18.30;99.90
74901;DHT22;63461;51.416;6.758;2023-07-20T07:36:53;18.40;99.90
74901;DHT22;63461;51.416;6.758;2023-07-20T07:39:19;18.40;99.90
74901;DHT22;63461;51.416;6.758;2023-07-20T07:41:45;18.40;99.90
74901;DHT22;63461;51.416;6.758;2023-07-20T07:44:10;18.50;99.90
74901;DHT22;63461;51.416;6.758;2023-07-20T07:46:37;18.60;99.90
74901;DHT22;63461;51.416;6.758;2023-07-20T07:49:02;18.70;99.90
74901;DHT22;63461;51.416;6.758;2023-07-20T07:51:29;18.70;99.90
74901;DHT22;63461;51.416;6.758;2023-07-20T07:53:55;18.80;99.90
74901;DHT22;63461;51.416;6.758;2023-07-20T07:56:21;18.80;99.90
74901;DHT22;63461;51.416;6.758;2023-07-20T07:58:50;18.80;99.90
74901;DHT22;63461;51.416;6.758;2023-07-20T08:01:17;18.80;99.90
74901;DHT22;63461;51.416;6.758;2023-07-20T08:03:45;18.80;99.90
74901;DHT22;63461;51.416;6.758;2023-07-20T08:06:15;18.70;99.90
74901;DHT22;63461;51.416;6.758;2023-07-20T08:08:41;18.80;99.90
74901;DHT22;63461;51.416;6.758;2023-07-20T08:11:08;18.90;99.90
74901;DHT22;63461;51.416;6.758;2023-07-20T08:13:34;18.90;99.90
74901;DHT22;63461;51.416;6.758;2023-07-20T08:16:01;18.90;99.90
74901;DHT22;63461;51.416;6.758;2023-07-20T08:18:28;18.90;99.90
74901;DHT22;63461;51.416;6.758;2023-07-20T08:20:54;18.80;99.90
74901;DHT22;63461;51.416;6.758;2023-07-20T08:23:20;18.80;99.90
74901;DHT22;63461;51.416;6.758;2023-07-20T08:25:46;18.80;99.90
74901;DHT22;63461;51.416;6.758;2023-07-20T08:28:14;18.90;99.90
74901;DHT22;63461;51.416;6.758;2023-07-20T08:30:45;18.90;99.90
74901;DHT22;63461;51.416;6.758;2023-07-20T08:33:13;18.90;99.90
74901;DHT22;63461;51.416;6.758;2023-07-20T08:35:39;18.90;99.90
74901;DHT22;63461;51.416;6.758;2023-07-20T08:38:05;19.00;99.90
74901;DHT22;63461;51.416;6.758;2023-07-20T08:40:39;19.10;99.90
74901;DHT22;63461;51.416;6.758;2023-07-20T08:43:05;19.10;99.90
74901;DHT22;63461;51.416;6.758;2023-07-20T08:45:33;19.00;99.90
74901;DHT22;63461;51.416;6.758;2023-07-20T08:48:00;19.00;99.90
74901;DHT22;63461;51.416;6.758;2023-07-20T08:50:30;19.00;99.90
74901;DHT22;63461;51.416;6.758;2023-07-20T08:52:58;19.10;99.90
74901;DHT22;63461;51.416;6.758;2023-07-20T08:55:28;19.20;99.90
74901;DHT22;63461;51.416;6.758;2023-07-20T08:57:56;19.40;99.90
74901;DHT22;63461;51.416;6.758;2023-07-20T09:00:22;19.40;99.90
74901;DHT22;63461;51.416;6.758;2023-07-20T09:02:52;19.40;99.90
74901;DHT22;63461;51.416;6.758;2023-07-20T09:05:19;19.50;99.90
74901;DHT22;63461;51.416;6.758;2023-07-20T09:07:46;19.60;99.90
74901;DHT22;63461;51.416;6.758;2023-07-20T09:10:12;19.50;99.90
74901;DHT22;63461;51.416;6.758;2023-07-20T09:12:39;19.50;99.90
74901;DHT22;63461;51.416;6.758;2023-07-20T09:15:06;19.70;99.90
74901;DHT22;63461;51.416;6.758;2023-07-20T09:17:32;19.60;99.90
74901;DHT22;63461;51.416;6.758;2023-07-20T09:19:59;19.60;99.90
74901;DHT22;63461;51.416;6.758;2023-07-20T09:22:31;19.60;99.90
74901;DHT22;63461;51.416;6.758;2023-07-20T09:24:58;19.40;99.90
74901;DHT22;63461;51.416;6.758;2023-07-20T09:27:50;19.40;99.90
74901;DHT22;63461;51.416;6.758;2023-07-20T09:30:16;19.40;99.90
74901;DHT22;63461;51.416;6.758;2023-07-20T09:32:47;19.40;99.90
74901;DHT22;63461;51.416;6.758;2023-07-20T09:35:14;19.30;99.90
74901;DHT22;63461;51.416;6.758;2023-07-20T09:37:46;19.30;99.90
74901;DHT22;63461;51.416;6.758;2023-07-20T09:40:15;19.40;99.90
74901;DHT22;63461;51.416;6.758;2023-07-20T09:42:42;19.40;99.90
74901;DHT22;63461;51.416;6.758;2023-07-20T09:45:08;19.40;99.90
74901;DHT22;63461;51.416;6.758;2023-07-20T09:47:37;19.50;99.90
74901;DHT22;63461;51.416;6.758;2023-07-20T09:50:07;19.50;99.90
74901;DHT22;63461;51.416;6.758;2023-07-20T09:52:40;19.60;99.90
74901;DHT22;63461;51.416;6.758;2023-07-20T09:55:07;19.60;99.90
74901;DHT22;63461;51.416;6.758;2023-07-20T09:57:35;19.60;99.90
74901;DHT22;63461;51.416;6.758;2023-07-20T10:00:06;19.50;99.90
74901;DHT22;63461;51.416;6.758;2023-07-20T10:02:44;19.50;99.90
74901;DHT22;63461;51.416;6.758;2023-07-20T10:05:12;19.50;99.90
74901;DHT22;63461;51.416;6.758;2023-07-20T10:07:50;19.50;99.90
74901;DHT22;63461;51.416;6.758;2023-07-20T10:10:17;19.60;99.90
74901;DHT22;63461;51.416;6.758;2023-07-20T10:12:47;19.70;99.90
74901;DHT22;63461;51.416;6.758;2023-07-20T10:15:29;19.70;99.90
74901;DHT22;63461;51.416;6.758;2023-07-20T10:18:13;19.60;99.90
74901;DHT22;63461;51.416;6.758;2023-07-20T10:20:40;19.70;99.90
74901;DHT22;63461;51.416;6.758;2023-07-20T10:23:09;19.70;99.90
74901;DHT22;63461;51.416;6.758;2023-07-20T10:25:35;19.60;99.90
74901;DHT22;63461;51.416;6.758;2023-07-20T10:28:06;19.70;99.90
74901;DHT22;63461;51.416;6.758;2023-07-20T10:30:34;19.80;99.90
74901;DHT22;63461;51.416;6.758;2023-07-20T10:33:05;19.90;99.90
74901;DHT22;63461;51.416;6.758;2023-07-20T10:35:31;19.90;99.90
74901;DHT22;63461;51.416;6.758;2023-07-20T10:38:15;20.10;99.90
74901;DHT22;63461;51.416;6.758;2023-07-20T10:40:41;20.10;99.90
74901;DHT22;63461;51.416;6.758;2023-07-20T10:43:08;20.10;99.90
74901;DHT22;63461;51.416;6.758;2023-07-20T10:48:05;20.10;99.90
74901;DHT22;63461;51.416;6.758;2023-07-20T10:50:33;20.10;99.90
74901;DHT22;63461;51.416;6.758;2023-07-20T10:53:13;20.10;99.90
74901;DHT22;63461;51.416;6.758;2023-07-20T10:55:40;20.10;99.90
74901;DHT22;63461;51.416;6.758;2023-07-20T10:58:13;20.20;99.90
74901;DHT22;63461;51.416;6.758;2023-07-20T11:01:03;20.40;99.90
74901;DHT22;63461;51.416;6.758;2023-07-20T11:03:33;20.40;99.90
74901;DHT22;63461;51.416;6.758;2023-07-20T11:06:00;20.40;99.90
74901;DHT22;63461;51.416;6.758;2023-07-20T11:08:45;20.50;99.90
74901;DHT22;63461;51.416;6.758;2023-07-20T11:11:27;20.50;99.90
74901;DHT22;63461;51.416;6.758;2023-07-20T11:14:03;20.50;99.90
74901;DHT22;63461;51.416;6.758;2023-07-20T11:16:40;20.40;99.90
74901;DHT22;63461;51.416;6.758;2023-07-20T11:19:14;20.40;99.90
74901;DHT22;63461;51.416;6.758;2023-07-20T11:21:42;20.40;99.90
74901;DHT22;63461;51.416;6.758;2023-07-20T11:24:08;20.60;99.90
74901;DHT22;63461;51.416;6.758;2023-07-20T11:26:47;20.70;99.90
74901;DHT22;63461;51.416;6.758;2023-07-20T11:29:14;20.80;99.90
74901;DHT22;63461;51.416;6.758;2023-07-20T11:31:44;20.80;99.90
74901;DHT22;63461;51.416;6.758;2023-07-20T11:34:12;21.00;99.90
74901;DHT22;63461;51.416;6.758;2023-07-20T11:36:43;21.10;99.90
74901;DHT22;63461;51.416;6.758;2023-07-20T11:39:14;21.20;99.90
74901;DHT22;63461;51.416;6.758;2023-07-20T11:41:45;21.30;99.90
74901;DHT22;63461;51.416;6.758;2023-07-20T11:44:12;21.30;99.90
74901;DHT22;63461;51.416;6.758;2023-07-20T11:46:41;21.30;99.90
74901;DHT22;63461;51.416;6.758;2023-07-20T11:49:11;21.50;99.90
74901;DHT22;63461;51.416;6.758;2023-07-20T11:51:37;21.60;99.90
74901;DHT22;63461;51.416;6.758;2023-07-20T11:54:05;21.60;99.90
74901;DHT22;63461;51.416;6.758;2023-07-20T11:56:31;21.80;99.90
74901;DHT22;63461;51.416;6.758;2023-07-20T11:58:58;21.70;99.90
74901;DHT22;63461;51.416;6.758;2023-07-20T12:01:27;21.80;99.90
74901;DHT22;63461;51.416;6.758;2023-07-20T12:04:03;21.80;99.90
74901;DHT22;63461;51.416;6.758;2023-07-20T12:06:30;21.90;99.90
74901;DHT22;63461;51.416;6.758;2023-07-20T12:08:57;21.80;99.90
74901;DHT22;63461;51.416;6.758;2023-07-20T12:11:34;21.60;99.90
74901;DHT22;63461;51.416;6.758;2023-07-20T12:14:01;21.70;99.90
74901;DHT22;63461;51.416;6.758;2023-07-20T12:16:28;21.60;99.90
74901;DHT22;63461;51.416;6.758;2023-07-20T12:21:42;21.80;99.90
74901;DHT22;63461;51.416;6.758;2023-07-20T12:24:10;21.60;99.90
74901;DHT22;63461;51.416;6.758;2023-07-20T12:26:36;21.50;99.90
74901;DHT22;63461;51.416;6.758;2023-07-20T12:29:02;21.50;99.90
74901;DHT22;63461;51.416;6.758;2023-07-20T12:31:29;21.60;99.90
74901;DHT22;63461;51.416;6.758;2023-07-20T12:33:56;21.70;99.90
74901;DHT22;63461;51.416;6.758;2023-07-20T12:36:23;21.70;99.90
74901;DHT22;63461;51.416;6.758;2023-07-20T12:38:49;21.80;99.90
74901;DHT22;63461;51.416;6.758;2023-07-20T12:41:15;21.80;99.90
74901;DHT22;63461;51.416;6.758;2023-07-20T12:43:42;21.90;99.90
74901;DHT22;63461;51.416;6.758;2023-07-20T12:46:08;21.90;99.90
74901;DHT22;63461;51.416;6.758;2023-07-20T12:48:35;22.00;99.90
74901;DHT22;63461;51.416;6.758;2023-07-20T12:51:03;22.00;99.90
74901;DHT22;63461;51.416;6.758;2023-07-20T12:53:30;21.90;99.90
74901;DHT22;63461;51.416;6.758;2023-07-20T12:55:56;22.00;99.90
74901;DHT22;63461;51.416;6.758;2023-07-20T12:58:22;22.00;99.90
74901;DHT22;63461;51.416;6.758;2023-07-20T13:00:49;22.00;99.90
74901;DHT22;63461;51.416;6.758;2023-07-20T13:03:15;21.90;99.90
74901;DHT22;63461;51.416;6.758;2023-07-20T13:05:41;22.10;99.90
74901;DHT22;63461;51.416;6.758;2023-07-20T13:08:07;22.10;99.90
74901;DHT22;63461;51.416;6.758;2023-07-20T13:10:33;22.10;99.90
74901;DHT22;63461;51.416;6.758;2023-07-20T13:12:59;22.20;99.90
74901;DHT22;63461;51.416;6.758;2023-07-20T13:15:30;22.20;99.90
74901;DHT22;63461;51.416;6.758;2023-07-20T13:17:59;22.10;99.90
74901;DHT22;63461;51.416;6.758;2023-07-20T13:20:25;22.20;99.90
74901;DHT22;63461;51.416;6.758;2023-07-20T13:22:52;22.30;99.90
74901;DHT22;63461;51.416;6.758;2023-07-20T13:25:18;22.40;99.90
74901;DHT22;63461;51.416;6.758;2023-07-20T13:27:44;22.50;99.90
74901;DHT22;63461;51.416;6.758;2023-07-20T13:30:10;22.50;99.90
74901;DHT22;63461;51.416;6.758;2023-07-20T13:32:45;22.50;99.90
74901;DHT22;63461;51.416;6.758;2023-07-20T13:35:11;22.40;99.90
74901;DHT22;63461;51.416;6.758;2023-07-20T13:37:37;22.30;99.90
74901;DHT22;63461;51.416;6.758;2023-07-20T13:40:04;22.30;99.90
74901;DHT22;63461;51.416;6.758;2023-07-20T13:42:32;22.20;99.90
74901;DHT22;63461;51.416;6.758;2023-07-20T13:44:57;22.20;99.90
74901;DHT22;63461;51.416;6.758;2023-07-20T13:47:24;22.20;99.90
74901;DHT22;63461;51.416;6.758;2023-07-20T13:49:49;22.20;99.90
74901;DHT22;63461;51.416;6.758;2023-07-20T13:52:15;22.30;99.90
74901;DHT22;63461;51.416;6.758;2023-07-20T13:54:41;22.50;99.90
74901;DHT22;63461;51.416;6.758;2023-07-20T13:57:07;22.60;99.90
74901;DHT22;63461;51.416;6.758;2023-07-20T13:59:33;22.60;99.90
74901;DHT22;63461;51.416;6.758;2023-07-20T14:01:58;22.60;99.90
74901;DHT22;63461;51.416;6.758;2023-07-20T14:04:24;22.60;99.90
74901;DHT22;63461;51.416;6.758;2023-07-20T14:06:51;22.70;99.90
74901;DHT22;63461;51.416;6.758;2023-07-20T14:09:16;22.70;99.90
74901;DHT22;63461;51.416;6.758;2023-07-20T14:11:42;22.80;99.90
74901;DHT22;63461;51.416;6.758;2023-07-20T14:14:09;22.90;99.90
74901;DHT22;63461;51.416;6.758;2023-07-20T14:16:34;23.00;99.90
74901;DHT22;63461;51.416;6.758;2023-07-20T14:19:00;23.00;99.90
74901;DHT22;63461;51.416;6.758;2023-07-20T14:21:26;23.10;99.90
74901;DHT22;63461;51.416;6.758;2023-07-20T14:23:53;23.00;99.90
74901;DHT22;63461;51.416;6.758;2023-07-20T14:26:19;23.10;99.90
74901;DHT22;63461;51.416;6.758;2023-07-20T14:28:45;23.20;99.90
74901;DHT22;63461;51.416;6.758;2023-07-20T14:31:11;23.20;99.90
74901;DHT22;63461;51.416;6.758;2023-07-20T14:33:36;23.20;99.90
74901;DHT22;63461;51.416;6.758;2023-07-20T14:36:03;23.00;99.90
74901;DHT22;63461;51.416;6.758;2023-07-20T14:38:30;22.80;99.90
74901;DHT22;63461;51.416;6.758;2023-07-20T14:40:55;22.60;99.90
74901;DHT22;63461;51.416;6.758;2023-07-20T14:43:21;22.70;99.90
74901;DHT22;63461;51.416;6.758;2023-07-20T14:45:47;22.80;99.90
74901;DHT22;63461;51.416;6.758;2023-07-20T14:48:13;22.80;99.90
74901;DHT22;63461;51.416;6.758;2023-07-20T14:50:39;22.90;99.90
74901;DHT22;63461;51.416;6.758;2023-07-20T14:53:05;22.80;99.90
74901;DHT22;63461;51.416;6.758;2023-07-20T14:55:30;22.80;99.90
74901;DHT22;63461;51.416;6.758;2023-07-20T14:57:56;22.90;99.90
74901;DHT22;63461;51.416;6.758;2023-07-20T15:00:22;22.90;99.90
74901;DHT22;63461;51.416;6.758;2023-07-20T15:02:48;23.00;99.90
74901;DHT22;63461;51.416;6.758;2023-07-20T15:05:20;23.10;99.90
74901;DHT22;63461;51.416;6.758;2023-07-20T15:07:47;23.20;99.90
74901;DHT22;63461;51.416;6.758;2023-07-20T15:10:13;23.20;99.90
74901;DHT22;63461;51.416;6.758;2023-07-20T15:12:39;23.00;99.90
74901;DHT22;63461;51.416;6.758;2023-07-20T15:15:12;23.10;99.90
74901;DHT22;63461;51.416;6.758;2023-07-20T15:17:38;23.20;99.90
74901;DHT22;63461;51.416;6.758;2023-07-20T15:20:06;23.40;99.90
74901;DHT22;63461;51.416;6.758;2023-07-20T15:22:33;23.40;99.90
74901;DHT22;63461;51.416;6.758;2023-07-20T15:24:59;23.40;99.90
74901;DHT22;63461;51.416;6.758;2023-07-20T15:27:26;23.40;99.90
74901;DHT22;63461;51.416;6.758;2023-07-20T15:29:52;23.20;99.90
74901;DHT22;63461;51.416;6.758;2023-07-20T15:32:18;23.10;99.90
74901;DHT22;63461;51.416;6.758;2023-07-20T15:34:46;23.00;99.90
74901;DHT22;63461;51.416;6.758;2023-07-20T15:37:12;23.00;99.90
74901;DHT22;63461;51.416;6.758;2023-07-20T15:39:39;22.80;99.90
74901;DHT22;63461;51.416;6.758;2023-07-20T15:42:05;22.90;99.90
74901;DHT22;63461;51.416;6.758;2023-07-20T15:44:32;22.90;99.90